createdAt,value
2022-11-24T05:06:57.200Z,8.15
2022-11-24T05:10:18.185Z,8.15
2022-11-24T05:13:20.226Z,7.51
2022-11-24T05:16:22.530Z,7.52
2022-11-24T05:19:26.299Z,7.60
2022-11-24T05:22:32.496Z,7.58
2022-11-24T05:25:35.340Z,7.54
2022-11-24T05:28:37.624Z,7.50
2022-11-24T05:31:39.718Z,7.74
2022-11-24T05:34:42.013Z,7.66
2022-11-24T05:37:44.039Z,7.67
2022-11-24T05:40:46.400Z,7.95
2022-11-24T05:43:48.445Z,8.03
2022-11-24T05:46:51.163Z,8.20
2022-11-24T05:49:53.258Z,7.95
2022-11-24T05:52:55.557Z,7.87
2022-11-24T05:55:57.784Z,7.71
2022-11-24T05:59:00.929Z,7.79
2022-11-24T06:02:05.239Z,7.87
2022-11-24T06:05:08.262Z,7.81
2022-11-24T06:08:10.308Z,7.59
2022-11-24T06:11:18.531Z,7.62
2022-11-24T06:14:20.592Z,7.46
2022-11-24T06:17:22.918Z,7.68
2022-11-24T06:20:28.503Z,7.95
2022-11-24T06:23:33.768Z,7.97
2022-11-24T06:26:35.840Z,7.82
2022-11-24T06:29:38.778Z,8.30
2022-11-24T06:32:49.156Z,8.06
2022-11-24T06:35:52.396Z,7.99
2022-11-24T06:38:54.708Z,8.00
2022-11-24T06:41:57.420Z,7.70
2022-11-24T06:45:00.326Z,7.74
2022-11-24T06:48:02.839Z,7.64
2022-11-24T06:51:07.338Z,7.75
2022-11-24T06:54:13.780Z,7.86
2022-11-24T06:57:15.846Z,7.86
2022-11-24T07:00:18.699Z,7.84
2022-11-24T07:03:20.809Z,7.76
2022-11-24T07:06:25.204Z,7.96
2022-11-24T07:09:27.426Z,7.94
2022-11-24T07:12:35.780Z,7.91
2022-11-24T07:15:40.275Z,7.76
2022-11-24T07:18:47.375Z,7.73
2022-11-24T07:21:49.475Z,8.20
2022-11-24T07:24:51.904Z,7.93
2022-11-24T07:27:57.899Z,7.88
2022-11-24T07:31:12.309Z,7.96
2022-11-24T07:34:14.874Z,7.98
2022-11-24T07:37:17.299Z,8.22
2022-11-24T07:40:19.352Z,8.08
2022-11-24T07:43:21.694Z,8.05
2022-11-24T07:46:24.159Z,7.99
2022-11-24T07:49:26.562Z,8.02
2022-11-24T07:52:28.606Z,8.12
2022-11-24T07:55:30.945Z,8.00
2022-11-24T07:58:35.866Z,8.09
2022-11-24T08:01:38.224Z,8.15
2022-11-24T08:04:40.561Z,8.42
2022-11-24T08:07:42.699Z,8.41
2022-11-24T08:10:45.038Z,8.62
2022-11-24T08:13:47.279Z,8.49
2022-11-24T08:16:49.813Z,8.62
2022-11-24T08:19:51.876Z,8.67
2022-11-24T08:22:58.339Z,8.58
2022-11-24T08:26:05.337Z,8.68
2022-11-24T08:29:07.755Z,9.17
2022-11-24T08:32:10.885Z,9.30
2022-11-24T08:35:14.231Z,9.16
2022-11-24T08:38:17.285Z,8.94
2022-11-24T08:41:19.581Z,8.65
2022-11-24T08:44:21.599Z,8.54
2022-11-24T08:47:23.924Z,9.09
2022-11-24T08:50:26.306Z,9.09
2022-11-24T08:53:28.584Z,9.28
2022-11-24T08:56:34.293Z,9.05
2022-11-24T08:59:37.106Z,8.82
2022-11-24T09:02:39.403Z,9.23
2022-11-24T09:05:57.262Z,9.26
2022-11-24T09:08:59.927Z,9.05
2022-11-24T09:12:02.212Z,8.94
2022-11-24T09:15:04.976Z,8.96
2022-11-24T09:18:07.586Z,8.96
2022-11-24T09:21:12.444Z,9.06
2022-11-24T09:24:16.481Z,8.90
2022-11-24T09:27:18.507Z,8.77
2022-11-24T09:30:20.977Z,9.05
2022-11-24T09:33:23.120Z,8.90
2022-11-24T09:36:25.574Z,8.80
2022-11-24T09:39:27.665Z,9.15
2022-11-24T09:42:40.837Z,9.05
2022-11-24T09:49:14.415Z,9.70
2022-11-24T09:52:23.147Z,9.71
2022-11-24T09:55:32.432Z,9.72
2022-11-24T09:58:45.871Z,10.02
2022-11-24T10:01:50.511Z,9.95
2022-11-24T10:04:54.716Z,9.40
2022-11-24T10:08:25.794Z,9.18
2022-11-24T10:11:38.116Z,9.28
2022-11-24T10:15:19.087Z,8.82
2022-11-24T10:18:33.743Z,8.80
2022-11-24T10:21:54.511Z,8.80
2022-11-24T10:25:19.289Z,8.69
2022-11-24T10:28:21.378Z,9.16
2022-11-24T10:31:36.119Z,9.29
2022-11-24T10:34:43.401Z,9.65
2022-11-24T10:38:02.325Z,9.63
2022-11-24T10:41:20.261Z,9.52
2022-11-24T10:44:22.644Z,9.35
2022-11-24T10:47:24.712Z,9.19
2022-11-24T10:50:30.511Z,9.00
2022-11-24T10:53:35.406Z,9.15
2022-11-24T10:56:42.383Z,9.06
2022-11-24T10:59:44.426Z,9.29
2022-11-24T11:02:48.773Z,9.34
2022-11-24T11:05:56.902Z,9.32
2022-11-24T11:09:20.986Z,9.57
2022-11-24T11:12:47.655Z,9.39
2022-11-24T11:15:50.388Z,9.22
2022-11-24T11:18:53.177Z,9.47
2022-11-24T11:22:02.036Z,9.45
2022-11-24T11:25:10.132Z,9.37
2022-11-24T11:28:18.816Z,9.23
2022-11-24T11:31:22.775Z,9.20
2022-11-24T11:34:35.277Z,9.02
2022-11-24T11:37:37.337Z,8.83
2022-11-24T11:40:43.570Z,8.76
2022-11-24T11:43:50.564Z,8.81
2022-11-24T11:46:54.801Z,8.68
2022-11-24T11:49:57.679Z,8.73
2022-11-24T11:53:18.641Z,8.72
2022-11-24T11:56:30.685Z,8.81
2022-11-24T11:59:55.035Z,8.91
2022-11-24T12:03:42.452Z,8.93
2022-11-24T12:07:06.464Z,8.82
2022-11-24T12:10:25.312Z,8.70
2022-11-24T12:13:53.763Z,8.73
2022-11-24T12:17:08.866Z,8.80
2022-11-24T12:20:37.765Z,8.75
2022-11-24T12:23:52.097Z,8.70
2022-11-24T12:27:03.924Z,8.98
2022-11-24T12:30:12.712Z,8.74
2022-11-24T12:33:30.162Z,8.63
2022-11-24T12:36:41.168Z,8.57
2022-11-24T12:40:03.771Z,8.59
2022-11-24T12:43:22.626Z,8.57
2022-11-24T12:46:51.922Z,8.45
2022-11-24T12:50:06.016Z,8.42
2022-11-24T12:53:21.939Z,8.44
2022-11-24T12:56:43.329Z,8.51
2022-11-24T13:00:07.779Z,8.53
2022-11-24T13:03:31.153Z,8.62
2022-11-24T13:07:10.933Z,8.66
2022-11-24T13:10:55.479Z,8.58
2022-11-24T13:14:06.820Z,8.50
2022-11-24T13:17:40.601Z,8.50
2022-11-24T13:20:52.516Z,8.69
2022-11-24T13:23:59.616Z,8.78
2022-11-24T13:27:18.767Z,8.80
2022-11-24T13:30:35.828Z,8.79
2022-11-24T13:33:38.846Z,8.73
2022-11-24T13:36:53.644Z,8.68
2022-11-24T13:40:11.734Z,8.59
2022-11-24T13:43:13.787Z,8.64
2022-11-24T13:46:56.616Z,8.57
2022-11-24T13:50:04.717Z,8.63
2022-11-24T13:53:18.224Z,8.59
2022-11-24T13:56:24.512Z,8.65
2022-11-24T13:59:32.923Z,8.61
2022-11-24T14:02:35.162Z,8.64
2022-11-24T14:05:41.094Z,8.68
2022-11-24T14:08:45.716Z,8.98
2022-11-24T14:11:59.647Z,8.94
2022-11-24T14:15:22.359Z,9.04
2022-11-24T14:18:24.937Z,9.02
2022-11-24T14:21:42.303Z,8.83
2022-11-24T14:24:50.803Z,8.75
2022-11-24T14:27:52.941Z,8.75
2022-11-24T14:31:10.056Z,8.60
2022-11-24T14:34:12.098Z,8.71
2022-11-24T14:37:14.457Z,8.76
2022-11-24T14:40:45.098Z,8.61
2022-11-24T14:43:47.514Z,8.79
2022-11-24T14:46:50.534Z,8.76
2022-11-24T14:49:54.125Z,8.82
2022-11-24T14:52:58.428Z,8.78
2022-11-24T14:56:21.210Z,8.88
2022-11-24T14:59:25.889Z,8.88
2022-11-24T15:02:48.284Z,9.00
2022-11-24T15:05:56.041Z,9.37
2022-11-24T15:08:58.499Z,9.34
2022-11-24T15:12:06.608Z,9.26
2022-11-24T15:15:15.050Z,9.05
2022-11-24T15:18:35.704Z,8.77
2022-11-24T15:21:38.009Z,8.73
2022-11-24T15:24:50.996Z,8.51
2022-11-24T15:27:53.388Z,8.52
2022-11-24T15:31:01.468Z,8.60
2022-11-24T15:34:03.860Z,8.79
2022-11-24T15:37:05.906Z,8.81
2022-11-24T15:40:10.356Z,8.88
2022-11-24T15:43:29.490Z,8.86
2022-11-24T15:46:38.061Z,8.94
2022-11-24T15:49:40.449Z,8.77
2022-11-24T15:52:43.267Z,8.80
2022-11-24T15:55:45.628Z,8.71
2022-11-24T15:58:48.486Z,8.84
2022-11-24T16:01:50.817Z,8.89
2022-11-24T16:04:53.392Z,8.86
2022-11-24T16:07:55.546Z,8.91
2022-11-24T16:10:57.932Z,9.06
2022-11-24T16:14:00.115Z,8.91
2022-11-24T16:17:03.154Z,8.66
2022-11-24T16:20:05.956Z,8.96
2022-11-24T16:23:08.272Z,8.98
2022-11-24T16:26:10.420Z,8.88
2022-11-24T16:29:12.880Z,8.65
2022-11-24T16:32:14.970Z,8.84
2022-11-24T16:35:17.638Z,8.46
2022-11-24T16:38:20.348Z,8.57
2022-11-24T16:41:23.137Z,8.73
2022-11-24T16:44:25.216Z,8.78
